Time;durP1;ratioP1;P1;durP2;ratioP2;P2;SDS_P1;SDS_P2;PMS_P1;PMS_P2;Temp;Humidity;BMP_temperature;BMP_pressure;BME280_temperature;BME280_humidity;BME280_pressure;Samples;Min_cycle;Max_cycle;Signal;HPM_P1;HPM_P2
2022/06/13 00:00:43;;;;;;;11.90;5.00;;;;;;;;;;6178024;23;20036;-49
2022/06/13 00:03:09;;;;;;;18.40;6.22;;;;;;;;;;6150569;23;20005;-53
2022/06/13 00:05:35;;;;;;;13.55;6.05;;;;;;;;;;6176745;23;20091;-48
2022/06/13 00:08:00;;;;;;;15.85;5.07;;;;;;;;;;6176040;23;20056;-47
2022/06/13 00:10:25;;;;;;;15.48;6.32;;;;;;;;;;6176989;23;20077;-48
2022/06/13 00:12:51;;;;;;;13.48;5.93;;;;;;;;;;6177413;23;20009;-47
2022/06/13 00:15:16;;;;;;;17.65;6.68;;;;;;;;;;6174332;23;20017;-53
2022/06/13 00:17:42;;;;;;;14.82;5.50;;;;;;;;;;6175808;23;20598;-50
2022/06/13 00:20:07;;;;;;;19.83;5.97;;;;;;;;;;6178843;23;20039;-48
2022/06/13 00:22:33;;;;;;;13.98;5.43;;;;;;;;;;6175919;23;20008;-50
2022/06/13 00:24:58;;;;;;;18.13;5.70;;;;;;;;;;6150835;23;20040;-51
2022/06/13 00:27:23;;;;;;;14.50;5.57;;;;;;;;;;6171588;23;20077;-49
2022/06/13 00:29:49;;;;;;;14.13;6.72;;;;;;;;;;6177307;23;20015;-50
2022/06/13 00:32:15;;;;;;;21.92;6.18;;;;;;;;;;6175119;23;20005;-52
2022/06/13 00:34:40;;;;;;;15.57;5.85;;;;;;;;;;6177586;23;20009;-47
2022/06/13 00:37:05;;;;;;;14.75;5.47;;;;;;;;;;6177075;23;20343;-49
2022/06/13 00:39:31;;;;;;;14.02;5.53;;;;;;;;;;6171856;23;20332;-47
2022/06/13 00:41:56;;;;;;;18.63;5.65;;;;;;;;;;6164883;23;20009;-53
2022/06/13 00:44:23;;;;;;;9.27;5.18;;;;;;;;;;6177273;23;20317;-47
2022/06/13 00:46:50;;;;;;;15.88;5.93;;;;;;;;;;6172249;23;20009;-51
2022/06/13 00:49:26;;;;;;;17.38;6.25;;;;;;;;;;6177224;23;20105;-49
2022/06/13 00:51:55;;;;;;;13.90;5.72;;;;;;;;;;6175397;23;20485;-49
2022/06/13 00:54:21;;;;;;;16.83;6.10;;;;;;;;;;6177714;23;20044;-52
2022/06/13 00:56:48;;;;;;;12.70;5.70;;;;;;;;;;6174473;23;20013;-50
2022/06/13 00:59:16;;;;;;;13.82;5.80;;;;;;;;;;6178056;23;20021;-47
2022/06/13 01:01:41;;;;;;;17.73;6.60;;;;;;;;;;6179578;23;20002;-49
2022/06/13 01:04:07;;;;;;;24.90;6.43;;;;;;;;;;6179348;23;20040;-48
2022/06/13 01:06:34;;;;;;;17.95;6.20;;;;;;;;;;6174100;23;20012;-48
2022/06/13 01:09:04;;;;;;;16.00;6.15;;;;;;;;;;6178897;23;20035;-48
2022/06/13 01:11:29;;;;;;;17.73;6.10;;;;;;;;;;6174954;23;20370;-48
2022/06/13 01:14:02;;;;;;;16.60;5.88;;;;;;;;;;6180604;23;20009;-51
2022/06/13 01:16:39;;;;;;;12.80;5.32;;;;;;;;;;6138912;23;20009;-52
2022/06/13 01:19:24;;;;;;;14.93;5.28;;;;;;;;;;6149865;23;20016;-47
2022/06/13 01:21:49;;;;;;;11.38;5.43;;;;;;;;;;6178436;23;20005;-48
2022/06/13 01:24:17;;;;;;;11.90;5.22;;;;;;;;;;6176141;23;20020;-51
2022/06/13 01:26:42;;;;;;;15.23;6.20;;;;;;;;;;6178281;23;20009;-48
2022/06/13 01:29:31;;;;;;;14.30;6.63;;;;;;;;;;6175314;23;20017;-48
2022/06/13 01:32:01;;;;;;;13.52;5.20;;;;;;;;;;6175478;23;20009;-48
2022/06/13 01:34:26;;;;;;;13.52;5.80;;;;;;;;;;6172747;23;20035;-51
2022/06/13 01:37:04;;;;;;;12.75;5.50;;;;;;;;;;6177182;23;20411;-49
2022/06/13 01:39:48;;;;;;;21.63;6.13;;;;;;;;;;6178798;23;20334;-51
2022/06/13 01:42:32;;;;;;;15.82;5.30;;;;;;;;;;6174240;23;20057;-47
2022/06/13 01:44:57;;;;;;;16.63;5.32;;;;;;;;;;6176766;23;20537;-50
2022/06/13 01:47:23;;;;;;;12.23;5.28;;;;;;;;;;6174190;23;20025;-49
2022/06/13 01:49:57;;;;;;;22.63;5.60;;;;;;;;;;6168799;23;20013;-48
2022/06/13 01:52:27;;;;;;;11.63;5.03;;;;;;;;;;6169783;23;20016;-51
2022/06/13 01:54:55;;;;;;;15.52;4.95;;;;;;;;;;6181254;23;20012;-51
2022/06/13 01:57:26;;;;;;;12.95;4.35;;;;;;;;;;6174059;23;20017;-49
2022/06/13 01:59:54;;;;;;;12.82;5.13;;;;;;;;;;6178598;23;20032;-49
2022/06/13 02:02:30;;;;;;;14.02;4.80;;;;;;;;;;6172884;23;20009;-47
2022/06/13 02:05:00;;;;;;;12.10;4.80;;;;;;;;;;6169755;23;20013;-49
2022/06/13 02:07:25;;;;;;;;;;;;;;;;;;6177737;23;20021;-49
2022/06/13 02:09:56;;;;;;;13.15;4.40;;;;;;;;;;6178176;23;19931;-49
2022/06/13 02:12:23;;;;;;;20.73;7.80;;;;;;;;;;6169547;23;20013;-49
2022/06/13 02:14:51;;;;;;;15.02;5.60;;;;;;;;;;6175029;23;20053;-47
2022/06/13 02:17:21;;;;;;;15.82;4.93;;;;;;;;;;6165821;23;20024;-49
2022/06/13 02:19:50;;;;;;;14.48;5.70;;;;;;;;;;6177793;23;20024;-48
2022/06/13 02:22:20;;;;;;;18.73;5.30;;;;;;;;;;6171976;23;20017;-51
2022/06/13 02:24:57;;;;;;;16.00;5.93;;;;;;;;;;6180402;23;20021;-48
2022/06/13 02:27:26;;;;;;;10.00;4.70;;;;;;;;;;6170909;23;20023;-46
2022/06/13 02:29:54;;;;;;;11.43;4.90;;;;;;;;;;6179373;23;20462;-50
2022/06/13 02:32:23;;;;;;;11.77;5.28;;;;;;;;;;6167039;23;20024;-49
2022/06/13 02:34:51;;;;;;;14.80;5.30;;;;;;;;;;6175057;23;20369;-51
2022/06/13 02:37:52;;;;;;;15.48;5.47;;;;;;;;;;6174442;23;20275;-52
2022/06/13 02:40:21;;;;;;;13.48;5.88;;;;;;;;;;6027735;23;20193;-50
2022/06/13 02:42:52;;;;;;;13.55;4.63;;;;;;;;;;6140748;23;20009;-47
2022/06/13 02:45:47;;;;;;;10.55;5.35;;;;;;;;;;6176452;23;20017;-50
2022/06/13 02:48:12;;;;;;;14.00;5.68;;;;;;;;;;6137084;23;20036;-49
2022/06/13 02:50:50;;;;;;;14.18;4.93;;;;;;;;;;6179134;23;20017;-50
2022/06/13 02:53:24;;;;;;;12.85;4.95;;;;;;;;;;6174904;23;20455;-51
2022/06/13 02:55:58;;;;;;;13.18;4.95;;;;;;;;;;6175270;23;20065;-55
2022/06/13 02:58:42;;;;;;;13.77;5.32;;;;;;;;;;6175627;23;20069;-46
2022/06/13 03:01:10;;;;;;;11.85;5.28;;;;;;;;;;6173811;23;20032;-49
2022/06/13 03:03:47;;;;;;;16.38;5.25;;;;;;;;;;6151550;23;20017;-51
2022/06/13 03:06:15;;;;;;;16.02;5.72;;;;;;;;;;6145440;23;20454;-50
2022/06/13 03:08:50;;;;;;;14.15;5.13;;;;;;;;;;6150522;23;20025;-51
2022/06/13 03:11:26;;;;;;;8.80;5.45;;;;;;;;;;6141077;23;20041;-48
2022/06/13 03:13:52;;;;;;;13.45;5.65;;;;;;;;;;6149586;23;20009;-47
2022/06/13 03:16:40;;;;;;;12.43;4.60;;;;;;;;;;6145004;23;20369;-49
2022/06/13 03:19:26;;;;;;;10.90;4.97;;;;;;;;;;6150373;23;20061;-51
2022/06/13 03:22:20;;;;;;;13.27;5.85;;;;;;;;;;6124052;23;20013;-50
2022/06/13 03:24:45;;;;;;;18.67;5.82;;;;;;;;;;6043382;23;20007;-51
2022/06/13 03:27:17;;;;;;;16.08;5.47;;;;;;;;;;6170530;23;20005;-47
2022/06/13 03:29:47;;;;;;;14.55;4.95;;;;;;;;;;6177650;23;20303;-48
2022/06/13 03:32:15;;;;;;;14.88;4.97;;;;;;;;;;6150456;23;20020;-48
2022/06/13 03:34:45;;;;;;;9.68;4.28;;;;;;;;;;6176363;23;20555;-50
2022/06/13 03:37:14;;;;;;;12.43;4.93;;;;;;;;;;6175015;23;20379;-49
2022/06/13 03:39:45;;;;;;;11.95;5.40;;;;;;;;;;6174508;23;20013;-50
2022/06/13 03:42:26;;;;;;;13.43;5.22;;;;;;;;;;6176747;23;20021;-51
2022/06/13 03:45:04;;;;;;;11.75;5.55;;;;;;;;;;6177141;23;20056;-48
2022/06/13 03:47:32;;;;;;;15.10;5.57;;;;;;;;;;6178429;23;20073;-48
2022/06/13 03:50:03;;;;;;;14.30;4.78;;;;;;;;;;6170349;23;20021;-48
2022/06/13 03:52:31;;;;;;;16.75;5.07;;;;;;;;;;6176206;23;20104;-50
2022/06/13 03:54:59;;;;;;;13.50;5.07;;;;;;;;;;6174429;23;20088;-50
2022/06/13 03:57:29;;;;;;;11.77;4.47;;;;;;;;;;6175580;23;20017;-52
2022/06/13 04:00:02;;;;;;;18.08;5.40;;;;;;;;;;6175364;23;20005;-48
2022/06/13 04:02:31;;;;;;;12.98;4.80;;;;;;;;;;6178981;23;20062;-49
2022/06/13 04:04:56;;;;;;;22.13;5.32;;;;;;;;;;6178486;23;20009;-48
2022/06/13 04:07:22;;;;;;;12.32;4.97;;;;;;;;;;6175741;23;20015;-51
2022/06/13 04:09:51;;;;;;;12.77;4.10;;;;;;;;;;6177797;23;20523;-51
2022/06/13 04:12:28;;;;;;;16.27;4.95;;;;;;;;;;6174527;23;20024;-49
2022/06/13 04:15:00;;;;;;;15.18;5.50;;;;;;;;;;6175151;23;20005;-48
2022/06/13 04:17:28;;;;;;;14.73;4.38;;;;;;;;;;6173838;23;20452;-49
2022/06/13 04:20:11;;;;;;;13.45;5.40;;;;;;;;;;6181518;23;20031;-48
2022/06/13 04:22:52;;;;;;;15.60;5.68;;;;;;;;;;6158779;23;20445;-48
2022/06/13 04:25:17;;;;;;;12.20;5.22;;;;;;;;;;6146154;23;20044;-49
2022/06/13 04:27:47;;;;;;;12.38;5.55;;;;;;;;;;6146251;23;20041;-49
2022/06/13 04:30:14;;;;;;;13.85;5.38;;;;;;;;;;6146301;23;20044;-47
2022/06/13 04:33:00;;;;;;;16.80;5.47;;;;;;;;;;6148905;23;20057;-47
2022/06/13 04:35:25;;;;;;;13.50;5.10;;;;;;;;;;6145088;23;20025;-49
2022/06/13 04:37:51;;;;;;;13.77;5.10;;;;;;;;;;6148761;23;20010;-49
2022/06/13 04:40:19;;;;;;;13.25;4.80;;;;;;;;;;6143575;23;20013;-48
2022/06/13 04:42:45;;;;;;;11.98;4.50;;;;;;;;;;6148713;23;20012;-52
2022/06/13 04:45:16;;;;;;;11.13;4.65;;;;;;;;;;6145289;23;20092;-51
2022/06/13 04:47:42;;;;;;;12.00;4.97;;;;;;;;;;6144819;23;20017;-49
2022/06/13 04:50:07;;;;;;;12.00;4.32;;;;;;;;;;6144633;23;20472;-52
2022/06/13 04:52:34;;;;;;;19.65;5.25;;;;;;;;;;6147961;23;20014;-47
2022/06/13 04:55:01;;;;;;;12.63;3.90;;;;;;;;;;6147979;23;20433;-47
2022/06/13 04:57:27;;;;;;;11.55;4.05;;;;;;;;;;6148093;23;20009;-50
2022/06/13 04:59:52;;;;;;;9.60;4.28;;;;;;;;;;6150097;23;20009;-49
2022/06/13 05:02:20;;;;;;;14.50;4.10;;;;;;;;;;6144967;23;20014;-50
2022/06/13 05:04:46;;;;;;;13.02;4.10;;;;;;;;;;6148715;23;20053;-50
2022/06/13 05:07:12;;;;;;;8.75;3.80;;;;;;;;;;6143059;23;20021;-51
2022/06/13 05:09:41;;;;;;;11.27;4.57;;;;;;;;;;6149329;23;20005;-49
2022/06/13 05:12:06;;;;;;;10.95;3.38;;;;;;;;;;6142896;23;20047;-50
2022/06/13 05:14:33;;;;;;;12.65;3.20;;;;;;;;;;6145055;23;20021;-47
2022/06/13 05:17:17;;;;;;;9.93;3.30;;;;;;;;;;6142836;23;20006;-47
2022/06/13 05:19:59;;;;;;;9.88;3.70;;;;;;;;;;6122629;23;20608;-51
2022/06/13 05:22:27;;;;;;;12.05;4.15;;;;;;;;;;6145162;23;20109;-49
2022/06/13 05:24:55;;;;;;;11.45;3.75;;;;;;;;;;6148782;23;20019;-52
2022/06/13 05:27:21;;;;;;;13.55;3.45;;;;;;;;;;6148439;23;20100;-52
2022/06/13 05:29:46;;;;;;;8.57;3.42;;;;;;;;;;6144739;23;20575;-49
2022/06/13 05:32:12;;;;;;;12.98;3.35;;;;;;;;;;6147699;23;20017;-51
2022/06/13 05:34:39;;;;;;;11.40;3.65;;;;;;;;;;6142223;23;20084;-51
2022/06/13 05:37:05;;;;;;;5.95;3.58;;;;;;;;;;6144305;23;20064;-48
2022/06/13 05:39:31;;;;;;;5.85;3.13;;;;;;;;;;6140064;23;20064;-51
2022/06/13 05:41:56;;;;;;;18.42;3.88;;;;;;;;;;6149674;23;20100;-49
2022/06/13 05:44:21;;;;;;;9.35;3.72;;;;;;;;;;6147564;23;20875;-49
2022/06/13 05:46:46;;;;;;;11.05;3.55;;;;;;;;;;6141098;23;20005;-51
2022/06/13 05:49:13;;;;;;;7.78;3.25;;;;;;;;;;6147462;23;20063;-49
2022/06/13 05:51:38;;;;;;;8.25;3.67;;;;;;;;;;6144269;23;20460;-51
2022/06/13 05:54:03;;;;;;;9.32;3.20;;;;;;;;;;6150145;23;20066;-48
2022/06/13 05:56:29;;;;;;;11.80;4.97;;;;;;;;;;6144424;23;20072;-52
2022/06/13 05:58:55;;;;;;;10.18;2.75;;;;;;;;;;6149465;23;20009;-48
2022/06/13 06:01:20;;;;;;;8.40;2.53;;;;;;;;;;6142759;23;20537;-49
2022/06/13 06:03:45;;;;;;;12.60;3.13;;;;;;;;;;6148077;23;20037;-48
2022/06/13 06:06:12;;;;;;;6.18;2.45;;;;;;;;;;6145645;23;20056;-51
2022/06/13 06:08:39;;;;;;;5.90;3.03;;;;;;;;;;6147429;23;20022;-48
2022/06/13 06:11:04;;;;;;;10.02;3.60;;;;;;;;;;6147778;23;20009;-48
2022/06/13 06:13:30;;;;;;;10.27;3.00;;;;;;;;;;6146196;23;20041;-51
2022/06/13 06:15:56;;;;;;;7.22;3.22;;;;;;;;;;6147216;23;20228;-50
2022/06/13 06:18:22;;;;;;;11.18;3.38;;;;;;;;;;6145650;23;20064;-48
2022/06/13 06:20:48;;;;;;;12.25;3.22;;;;;;;;;;6144444;23;20033;-50
2022/06/13 06:23:13;;;;;;;13.60;3.35;;;;;;;;;;6145829;23;20017;-52
2022/06/13 06:25:38;;;;;;;15.48;4.13;;;;;;;;;;6144533;23;20018;-46
2022/06/13 06:28:04;;;;;;;6.78;2.65;;;;;;;;;;6150184;23;20022;-50
2022/06/13 06:30:30;;;;;;;11.55;3.13;;;;;;;;;;6140173;23;20029;-47
2022/06/13 06:32:55;;;;;;;8.48;3.00;;;;;;;;;;6143547;23;20084;-52
2022/06/13 06:35:21;;;;;;;8.82;2.55;;;;;;;;;;6141746;23;20100;-49
2022/06/13 06:37:47;;;;;;;6.07;2.15;;;;;;;;;;6147786;23;20040;-51
2022/06/13 06:40:14;;;;;;;9.38;2.55;;;;;;;;;;6145819;23;20044;-51
2022/06/13 06:42:39;;;;;;;8.90;2.50;;;;;;;;;;6150154;23;20036;-49
2022/06/13 06:45:05;;;;;;;4.65;2.13;;;;;;;;;;6148788;23;20017;-48
2022/06/13 06:47:30;;;;;;;6.28;2.40;;;;;;;;;;6149498;23;20492;-47
2022/06/13 06:49:55;;;;;;;3.72;2.42;;;;;;;;;;6144301;23;20072;-50
2022/06/13 06:52:20;;;;;;;11.52;2.40;;;;;;;;;;6146733;23;20017;-50
2022/06/13 07:00:14;;;;;;;6.00;2.00;;;;;;;;;;6146866;23;20020;-50
2022/06/13 07:02:39;;;;;;;7.15;2.03;;;;;;;;;;6148041;23;20009;-50
2022/06/13 07:05:06;;;;;;;4.47;1.67;;;;;;;;;;6151088;23;20029;-48
2022/06/13 07:07:31;;;;;;;6.13;2.00;;;;;;;;;;6148527;23;20017;-48
2022/06/13 07:09:56;;;;;;;6.55;2.75;;;;;;;;;;6152001;23;20012;-50
2022/06/13 07:12:22;;;;;;;6.10;2.10;;;;;;;;;;6141698;23;20033;-46
2022/06/13 07:14:47;;;;;;;7.72;2.08;;;;;;;;;;6151452;23;20005;-50
2022/06/13 07:17:13;;;;;;;5.63;1.98;;;;;;;;;;6142036;23;20013;-49
2022/06/13 07:19:39;;;;;;;2.40;1.60;;;;;;;;;;6149775;23;20278;-50
2022/06/13 07:22:05;;;;;;;4.80;2.10;;;;;;;;;;6143103;23;20655;-49
2022/06/13 07:24:33;;;;;;;5.63;1.73;;;;;;;;;;6148344;23;20037;-49
2022/06/13 07:26:59;;;;;;;8.48;1.90;;;;;;;;;;6139729;23;20010;-48
2022/06/13 07:29:24;;;;;;;9.75;2.97;;;;;;;;;;6144468;23;20024;-48
2022/06/13 07:31:55;;;;;;;4.28;2.00;;;;;;;;;;6146155;23;20006;-50
2022/06/13 07:34:22;;;;;;;4.03;1.90;;;;;;;;;;6145131;23;20016;-49
2022/06/13 07:36:48;;;;;;;2.60;1.83;;;;;;;;;;6147663;23;20060;-49
2022/06/13 07:39:13;;;;;;;8.27;2.05;;;;;;;;;;6141146;23;20013;-47
2022/06/13 07:41:39;;;;;;;8.27;2.00;;;;;;;;;;6145976;23;20340;-47
2022/06/13 07:44:05;;;;;;;3.33;1.73;;;;;;;;;;6148693;23;20067;-51
2022/06/13 07:46:31;;;;;;;3.00;1.55;;;;;;;;;;6143828;23;20013;-49
2022/06/13 07:48:57;;;;;;;3.78;2.05;;;;;;;;;;6148281;23;20021;-46
2022/06/13 07:51:23;;;;;;;3.85;1.63;;;;;;;;;;6140697;23;20032;-45
2022/06/13 07:53:48;;;;;;;3.78;1.58;;;;;;;;;;6147709;23;20085;-45
2022/06/13 07:56:15;;;;;;;2.63;1.50;;;;;;;;;;6113212;23;20157;-47
2022/06/13 07:58:41;;;;;;;2.88;1.30;;;;;;;;;;6151297;23;20083;-49
2022/06/13 08:01:06;;;;;;;4.40;1.85;;;;;;;;;;6143013;23;20010;-45
2022/06/13 08:03:32;;;;;;;3.58;1.55;;;;;;;;;;6141472;23;20412;-47
2022/06/13 08:05:58;;;;;;;3.33;1.38;;;;;;;;;;6145166;23;20065;-49
2022/06/13 08:08:24;;;;;;;5.65;2.00;;;;;;;;;;6139219;23;20018;-46
2022/06/13 08:10:50;;;;;;;4.07;1.70;;;;;;;;;;6145323;23;20021;-47
2022/06/13 08:13:17;;;;;;;5.53;1.80;;;;;;;;;;6137560;23;20816;-48
2022/06/13 08:15:43;;;;;;;6.05;1.73;;;;;;;;;;6147436;23;20545;-48
2022/06/13 08:18:09;;;;;;;5.38;1.92;;;;;;;;;;6141604;23;20551;-47
2022/06/13 08:20:34;;;;;;;2.20;1.70;;;;;;;;;;6145740;23;20013;-49
2022/06/13 08:23:00;;;;;;;6.07;1.80;;;;;;;;;;6136896;23;20013;-47
2022/06/13 08:25:29;;;;;;;2.92;1.58;;;;;;;;;;6117532;23;20009;-51
2022/06/13 08:27:55;;;;;;;;;;;;;;;;;;6145115;23;20041;-50
2022/06/13 08:30:20;;;;;;;3.95;1.60;;;;;;;;;;6145403;23;19908;-45
2022/06/13 08:32:46;;;;;;;3.55;1.70;;;;;;;;;;6144135;23;20013;-51
2022/06/13 08:35:11;;;;;;;4.28;1.90;;;;;;;;;;6142351;23;20791;-50
2022/06/13 08:37:36;;;;;;;4.85;1.60;;;;;;;;;;6123969;23;20017;-50
2022/06/13 08:40:03;;;;;;;6.43;1.60;;;;;;;;;;6145719;23;20084;-48
2022/06/13 08:42:38;;;;;;;4.70;1.55;;;;;;;;;;6146772;23;20016;-48
2022/06/13 08:45:18;;;;;;;4.95;2.00;;;;;;;;;;6148823;23;20013;-48
2022/06/13 08:47:46;;;;;;;2.75;1.70;;;;;;;;;;6166289;23;20450;-49
2022/06/13 08:50:11;;;;;;;2.88;1.50;;;;;;;;;;6171964;23;20103;-48
2022/06/13 08:52:44;;;;;;;3.55;1.42;;;;;;;;;;6152422;23;20064;-50
2022/06/13 08:55:12;;;;;;;2.90;1.55;;;;;;;;;;6149268;23;20008;-48
2022/06/13 08:57:41;;;;;;;2.60;1.30;;;;;;;;;;6180218;23;20013;-48
2022/06/13 09:00:18;;;;;;;2.20;1.38;;;;;;;;;;6177270;23;20008;-49
2022/06/13 09:02:51;;;;;;;3.55;1.48;;;;;;;;;;6146628;23;20013;-48
2022/06/13 09:05:27;;;;;;;4.82;1.30;;;;;;;;;;6145975;23;20301;-47
2022/06/13 09:07:56;;;;;;;3.70;1.20;;;;;;;;;;6148328;23;20433;-51
2022/06/13 09:10:27;;;;;;;3.88;1.75;;;;;;;;;;6143185;23;20681;-50
2022/06/13 09:13:15;;;;;;;2.85;1.50;;;;;;;;;;6144814;23;20028;-49
2022/06/13 09:15:53;;;;;;;2.75;1.75;;;;;;;;;;6121798;23;20013;-47
2022/06/13 09:18:25;;;;;;;2.97;1.40;;;;;;;;;;6147254;23;20017;-46
2022/06/13 09:20:53;;;;;;;8.88;3.00;;;;;;;;;;6147062;23;20358;-47
2022/06/13 09:23:29;;;;;;;5.23;2.17;;;;;;;;;;6146080;23;20014;-47
2022/06/13 09:26:09;;;;;;;3.83;1.88;;;;;;;;;;6149211;23;20234;-51
2022/06/13 09:28:35;;;;;;;2.88;2.20;;;;;;;;;;6170544;23;20021;-51
2022/06/13 09:31:08;;;;;;;4.03;1.52;;;;;;;;;;6178817;23;20204;-51
2022/06/13 09:33:34;;;;;;;3.50;1.63;;;;;;;;;;6171114;23;20077;-50
2022/06/13 09:36:00;;;;;;;3.63;1.77;;;;;;;;;;6175055;23;20017;-48
2022/06/13 09:38:34;;;;;;;2.78;1.50;;;;;;;;;;6176094;23;20830;-47
2022/06/13 09:41:03;;;;;;;4.97;1.80;;;;;;;;;;6176310;23;20009;-48
2022/06/13 09:43:41;;;;;;;7.10;2.22;;;;;;;;;;6175082;23;20021;-50
2022/06/13 09:46:15;;;;;;;2.50;1.73;;;;;;;;;;6177404;23;20024;-52
2022/06/13 09:48:46;;;;;;;5.28;2.05;;;;;;;;;;6175605;23;20064;-49
2022/06/13 09:51:47;;;;;;;6.97;1.70;;;;;;;;;;6172122;23;20036;-50
2022/06/13 09:54:18;;;;;;;2.38;1.45;;;;;;;;;;6174920;23;20072;-49
2022/06/13 09:56:43;;;;;;;3.30;1.80;;;;;;;;;;6178798;23;20001;-49
2022/06/13 09:59:29;;;;;;;2.88;1.50;;;;;;;;;;6176360;23;20035;-50
2022/06/13 10:01:59;;;;;;;1.58;1.35;;;;;;;;;;6172030;23;20001;-48
2022/06/13 10:04:25;;;;;;;3.05;1.30;;;;;;;;;;6170642;23;20017;-51
2022/06/13 10:06:54;;;;;;;2.33;1.40;;;;;;;;;;6147721;23;20014;-47
2022/06/13 10:09:22;;;;;;;2.17;1.58;;;;;;;;;;6142831;23;20221;-49
2022/06/13 10:11:59;;;;;;;2.17;1.65;;;;;;;;;;6148165;23;20013;-47
2022/06/13 10:14:40;;;;;;;1.92;1.63;;;;;;;;;;6141774;23;20032;-46
2022/06/13 10:17:05;;;;;;;2.58;1.60;;;;;;;;;;6125354;23;20041;-49
2022/06/13 10:19:30;;;;;;;2.63;2.00;;;;;;;;;;6148983;23;20045;-48
2022/06/13 10:21:56;;;;;;;2.97;1.70;;;;;;;;;;6147412;23;20332;-50
2022/06/13 10:24:21;;;;;;;2.35;1.67;;;;;;;;;;6141365;23;20236;-47
2022/06/13 10:26:46;;;;;;;3.42;1.40;;;;;;;;;;6148300;23;20005;-50
2022/06/13 10:29:21;;;;;;;5.90;1.80;;;;;;;;;;6145075;23;20033;-52
2022/06/13 10:32:05;;;;;;;2.88;1.52;;;;;;;;;;6147463;23;20242;-47
2022/06/13 10:34:33;;;;;;;4.00;1.67;;;;;;;;;;6145966;23;20523;-47
2022/06/13 10:37:11;;;;;;;2.78;1.38;;;;;;;;;;6147423;23;20009;-50
2022/06/13 10:39:36;;;;;;;3.42;1.38;;;;;;;;;;6177686;23;20005;-48
2022/06/13 10:42:07;;;;;;;1.27;1.10;;;;;;;;;;6177318;23;20375;-48
2022/06/13 10:44:32;;;;;;;3.63;1.70;;;;;;;;;;6179570;23;20009;-51
2022/06/13 10:47:02;;;;;;;2.75;1.42;;;;;;;;;;6173681;23;20020;-51
2022/06/13 10:49:49;;;;;;;2.88;1.15;;;;;;;;;;6151786;23;20032;-45
2022/06/13 10:52:17;;;;;;;3.55;1.58;;;;;;;;;;6178624;23;20600;-48
2022/06/13 10:54:44;;;;;;;3.55;1.80;;;;;;;;;;6173459;23;20013;-49
2022/06/13 10:57:12;;;;;;;1.35;1.25;;;;;;;;;;6178654;23;20339;-50
2022/06/13 10:59:38;;;;;;;2.70;1.45;;;;;;;;;;6181285;23;20148;-50
2022/06/13 11:02:06;;;;;;;1.92;1.55;;;;;;;;;;6176015;23;20017;-51
2022/06/13 11:04:32;;;;;;;3.55;1.52;;;;;;;;;;6174933;23;20013;-49
2022/06/13 11:07:00;;;;;;;2.45;1.52;;;;;;;;;;6175788;23;20016;-51
2022/06/13 11:09:36;;;;;;;2.15;1.75;;;;;;;;;;6177336;23;20507;-49
2022/06/13 11:12:03;;;;;;;2.50;1.77;;;;;;;;;;6177008;23;20013;-47
2022/06/13 11:14:36;;;;;;;2.80;1.65;;;;;;;;;;6175596;23;20195;-48
2022/06/13 11:22:40;;;;;;;2.80;1.10;;;;;;;;;;6175464;23;20027;-47
2022/06/13 11:25:11;;;;;;;1.52;1.23;;;;;;;;;;6174613;23;20108;-49
2022/06/13 11:27:40;;;;;;;2.05;1.60;;;;;;;;;;6176333;23;20025;-53
2022/06/13 11:30:24;;;;;;;2.50;1.63;;;;;;;;;;6178033;23;20013;-48
2022/06/13 11:33:08;;;;;;;3.15;1.38;;;;;;;;;;6177495;23;20005;-47
2022/06/13 11:35:41;;;;;;;2.72;1.92;;;;;;;;;;6173985;23;20044;-48
2022/06/13 11:38:14;;;;;;;3.90;1.77;;;;;;;;;;6175305;23;20072;-50
2022/06/13 11:40:39;;;;;;;3.35;1.60;;;;;;;;;;6179016;23;20163;-48
2022/06/13 11:43:08;;;;;;;1.88;1.17;;;;;;;;;;6176785;23;20005;-49
2022/06/13 11:45:33;;;;;;;4.38;1.92;;;;;;;;;;6146487;23;20013;-47
2022/06/13 11:47:59;;;;;;;1.60;1.08;;;;;;;;;;6145642;23;20030;-48
2022/06/13 11:50:26;;;;;;;3.72;1.92;;;;;;;;;;6149583;23;20514;-52
2022/06/13 11:55:43;;;;;;;2.20;1.48;;;;;;;;;;6149482;23;20071;-46
2022/06/13 11:58:17;;;;;;;2.38;1.92;;;;;;;;;;6144995;23;20021;-47
2022/06/13 12:00:53;;;;;;;1.75;1.63;;;;;;;;;;6152685;23;20018;-50
2022/06/13 12:03:20;;;;;;;2.70;1.80;;;;;;;;;;6149677;23;20024;-50
2022/06/13 12:05:50;;;;;;;3.25;1.38;;;;;;;;;;6116673;23;20012;-48
2022/06/13 12:08:19;;;;;;;2.65;1.60;;;;;;;;;;6146663;23;20033;-50
2022/06/13 12:10:53;;;;;;;5.55;2.00;;;;;;;;;;6119094;23;20009;-48
2022/06/13 12:13:20;;;;;;;2.03;1.70;;;;;;;;;;6143903;23;20072;-51
2022/06/13 12:15:51;;;;;;;3.50;1.60;;;;;;;;;;6140829;23;20069;-49
2022/06/13 12:18:16;;;;;;;2.10;1.55;;;;;;;;;;6145277;23;20084;-48
2022/06/13 12:20:54;;;;;;;2.55;1.40;;;;;;;;;;6143851;23;20080;-47
2022/06/13 12:23:25;;;;;;;1.92;1.50;;;;;;;;;;6143593;23;20014;-50
2022/06/13 12:25:52;;;;;;;8.00;1.88;;;;;;;;;;6142207;23;20017;-48
2022/06/13 12:28:21;;;;;;;3.08;1.63;;;;;;;;;;6140283;23;20799;-49
2022/06/13 12:30:47;;;;;;;2.15;1.75;;;;;;;;;;6145018;23;20411;-51
2022/06/13 12:33:22;;;;;;;4.90;1.52;;;;;;;;;;6140789;23;20013;-50
2022/06/13 12:35:59;;;;;;;2.47;1.27;;;;;;;;;;6138672;23;20021;-47
2022/06/13 12:38:41;;;;;;;3.15;1.40;;;;;;;;;;6140946;23;20013;-49
2022/06/13 12:41:19;;;;;;;2.05;1.75;;;;;;;;;;6141639;23;20005;-47
2022/06/13 12:43:45;;;;;;;3.33;1.85;;;;;;;;;;6173475;23;20013;-51
2022/06/13 12:46:10;;;;;;;2.83;1.83;;;;;;;;;;6176232;23;20012;-51
2022/06/13 12:48:36;;;;;;;3.17;1.45;;;;;;;;;;6173594;23;20013;-48
2022/06/13 12:51:07;;;;;;;3.60;1.90;;;;;;;;;;6180028;23;20057;-49
2022/06/13 12:53:44;;;;;;;3.28;1.65;;;;;;;;;;6176505;23;20037;-46
2022/06/13 12:56:13;;;;;;;3.90;1.40;;;;;;;;;;6177368;23;20020;-48
2022/06/13 12:58:41;;;;;;;3.22;1.75;;;;;;;;;;6181383;23;20012;-48
2022/06/13 13:01:17;;;;;;;5.30;1.40;;;;;;;;;;6178852;23;20013;-46
2022/06/13 13:04:07;;;;;;;3.28;1.55;;;;;;;;;;6176478;23;20088;-50
2022/06/13 13:06:46;;;;;;;5.63;2.05;;;;;;;;;;6174759;23;20454;-50
2022/06/13 13:09:17;;;;;;;3.50;1.43;;;;;;;;;;6175907;23;20029;-48
2022/06/13 13:11:43;;;;;;;3.53;1.50;;;;;;;;;;6176772;23;20029;-45
2022/06/13 13:14:29;;;;;;;2.92;1.40;;;;;;;;;;6176283;23;20001;-49
2022/06/13 13:17:07;;;;;;;2.30;1.30;;;;;;;;;;6171930;23;20005;-48
2022/06/13 13:19:44;;;;;;;2.03;1.70;;;;;;;;;;6175690;23;20033;-51
2022/06/13 13:22:15;;;;;;;4.47;1.58;;;;;;;;;;6150223;23;20005;-50
2022/06/13 13:24:49;;;;;;;3.08;2.17;;;;;;;;;;6177683;23;20019;-52
2022/06/13 13:27:19;;;;;;;4.95;1.60;;;;;;;;;;6147417;23;20407;-48
2022/06/13 13:29:44;;;;;;;;;;;;;;;;;;6180860;23;20017;-48
2022/06/13 13:32:28;;;;;;;2.22;1.58;;;;;;;;;;6172998;23;19915;-50
2022/06/13 13:34:56;;;;;;;3.60;1.50;;;;;;;;;;6178439;23;20017;-50
2022/06/13 13:37:37;;;;;;;2.58;1.42;;;;;;;;;;6174926;23;20172;-47
2022/06/13 13:40:06;;;;;;;1.52;1.35;;;;;;;;;;6177186;23;20020;-47
2022/06/13 13:42:37;;;;;;;1.58;1.45;;;;;;;;;;6178138;23;20009;-49
2022/06/13 13:45:16;;;;;;;4.88;1.63;;;;;;;;;;6174549;23;20072;-49
2022/06/13 13:47:43;;;;;;;3.60;1.40;;;;;;;;;;6177080;23;20053;-46
2022/06/13 13:50:18;;;;;;;2.65;1.55;;;;;;;;;;6175709;23;20549;-51
2022/06/13 13:52:46;;;;;;;2.85;1.25;;;;;;;;;;6180805;23;20014;-49
2022/06/13 13:55:27;;;;;;;3.72;1.40;;;;;;;;;;6176415;23;20013;-47
2022/06/13 13:58:15;;;;;;;3.35;1.25;;;;;;;;;;6178682;23;20028;-51
2022/06/13 14:00:54;;;;;;;1.90;1.55;;;;;;;;;;6178516;23;20009;-48
2022/06/13 14:03:20;;;;;;;;;;;;;;;;;;6174048;23;20020;-50
2022/06/13 14:05:48;;;;;;;3.22;1.30;;;;;;;;;;6178176;23;19916;-48
2022/06/13 14:08:18;;;;;;;5.72;1.63;;;;;;;;;;6175043;23;20077;-50
2022/06/13 14:10:52;;;;;;;1.35;1.20;;;;;;;;;;6148820;23;20024;-51
2022/06/13 14:13:31;;;;;;;3.42;1.60;;;;;;;;;;6171326;23;20017;-50
2022/06/13 14:16:15;;;;;;;2.33;1.37;;;;;;;;;;6172850;23;20427;-50
2022/06/13 14:18:43;;;;;;;3.08;1.45;;;;;;;;;;6178786;23;20246;-50
2022/06/13 14:21:13;;;;;;;2.88;1.42;;;;;;;;;;6176366;23;20009;-53
2022/06/13 14:23:38;;;;;;;1.63;1.25;;;;;;;;;;6179228;23;20009;-48
2022/06/13 14:26:04;;;;;;;4.65;1.83;;;;;;;;;;6176260;23;20020;-49
2022/06/13 14:28:43;;;;;;;2.72;1.33;;;;;;;;;;6150697;23;20104;-47
2022/06/13 14:31:09;;;;;;;3.97;1.98;;;;;;;;;;6173181;23;20009;-51
2022/06/13 14:36:58;;;;;;;3.55;1.60;;;;;;;;;;6170934;23;20067;-46
2022/06/13 14:39:26;;;;;;;1.98;1.60;;;;;;;;;;6168499;23;20061;-47
2022/06/13 14:41:51;;;;;;;3.83;1.60;;;;;;;;;;6176765;23;20421;-48
2022/06/13 14:44:27;;;;;;;4.07;1.90;;;;;;;;;;6175616;23;20013;-47
2022/06/13 14:47:01;;;;;;;7.47;1.98;;;;;;;;;;6177133;23;20043;-47
2022/06/13 14:49:44;;;;;;;5.03;1.38;;;;;;;;;;6134967;23;20052;-49
2022/06/13 14:52:19;;;;;;;3.72;1.52;;;;;;;;;;6172896;23;20020;-49
2022/06/13 14:54:49;;;;;;;3.85;2.10;;;;;;;;;;6177234;23;20009;-48
2022/06/13 14:57:26;;;;;;;4.28;1.75;;;;;;;;;;6167208;23;20036;-46
2022/06/13 15:00:10;;;;;;;4.65;2.00;;;;;;;;;;6174608;23;20013;-47
2022/06/13 15:02:51;;;;;;;3.67;1.67;;;;;;;;;;6173373;23;20083;-49
2022/06/13 15:05:16;;;;;;;3.90;1.80;;;;;;;;;;6167025;23;20073;-49
2022/06/13 15:07:45;;;;;;;4.30;1.92;;;;;;;;;;6171487;23;20048;-49
2022/06/13 15:10:21;;;;;;;3.60;1.52;;;;;;;;;;6143876;23;20006;-46
2022/06/13 15:12:47;;;;;;;3.58;2.00;;;;;;;;;;6170617;23;20300;-46